Flight Track Log - Related Links

Times and Time Zones

All times are in EDT time to prevent confusion due to time zone crossing. See the N245PE flight status page for this flight to view local times or setup timezone preferences in your user account.

Time Position Orientation Groundspeed Altitude Reporting Facility
EDT Latitude Longitude Course Direction KTS MPH feet Rate Location/Type
Mon 02:06:19 PM 33.8500 -84.3000 59° Northeast 114 131 2,300  Level Atlanta TRACON
Mon 02:07:19 PM 33.8667 -84.2667 59° Northeast 138 159 3,800 1,400 Climbing Atlanta TRACON
Mon 02:08:19 PM 33.8667 -84.2167 90° East 159 183 5,100 1,600 Climbing Atlanta TRACON
Mon 02:09:19 PM 33.8667 -84.1667 90° East 164 189 7,000 950 Climbing Atlanta TRACON
Mon 02:10:19 PM 33.8833 -84.0833 76° East 243 280 7,000  Level Atlanta TRACON
Mon 02:11:13 PM 33.8833 -84.0000 90° East 256 295 7,000  Level Atlanta TRACON
Mon 02:12:13 PM 33.9000 -83.9167 76° East 259 298 7,000  Level Atlanta TRACON
Mon 02:13:13 PM 33.9000 -83.8333 90° East 261 300 7,000  Level Atlanta TRACON
Mon 02:14:13 PM 33.9167 -83.7500 76° East 259 298 7,000  Level Atlanta TRACON
Mon 02:15:13 PM 33.9167 -83.6667 90° East 256 295 7,000 -650 Level Atlanta TRACON
Mon 02:16:13 PM 33.9000 -83.5833 104° East 219 252 5,700 -1,947 Descending Atlanta TRACON
Mon 02:17:07 PM 33.8833 -83.5333 112° Southeast 212 244 3,300 -1,421 Descending Atlanta TRACON
Mon 02:18:07 PM 33.9167 -83.5000 40° Northeast 186 214 3,000 -450 Descending Atlanta TRACON
Mon 02:19:07 PM 33.9500 -83.4667 40° Northeast 193 222 2,400 -474 Descending Atlanta TRACON
Mon 02:20:01 PM 33.9500 -83.4167 90° East 116 133 2,100 -474 Descending Atlanta TRACON
Mon 02:21:01 PM 33.9500 -83.3833 90° East 123 142 1,500 200 Descending Atlanta TRACON
Mon 02:23:01 PM 33.9667 -83.3167 73° East 141 162 2,700 833 Climbing Atlanta TRACON
Mon 02:24:01 PM 33.9667 -83.3667 270° West 175 201 4,000 619 Climbing Atlanta TRACON
Mon 02:25:07 PM 33.9667 -83.4333 270° West 199 229 4,000  Level Atlanta TRACON
Mon 02:26:01 PM 33.9500 -83.4833 248° West 160 184 4,000  Level Atlanta TRACON
Mon 02:27:01 PM 33.9500 -83.5333 270° West 158 182 4,000  Level Atlanta TRACON
Mon 02:28:01 PM 33.9333 -83.5833 248° West 169 194 4,000  Level Atlanta TRACON
Mon 02:29:01 PM 33.9167 -83.6333 248° West 175 201 4,000  Level Atlanta TRACON
Mon 02:30:01 PM 33.9333 -83.6333 360° North 198 228 4,000  Level Atlanta TRACON
Mon 02:31:01 PM 33.9500 -83.5667 73° East 180 207 4,000  Level Atlanta TRACON
Mon 02:31:55 PM 33.9167 -83.5333 140° Southeast 195 224 4,000  Level Atlanta TRACON
Mon 02:33:01 PM 33.9167 -83.5833 270° West 171 197 4,000  Level Atlanta TRACON
Mon 02:34:01 PM 33.9333 -83.6500 287° West 190 219 4,000  Level Atlanta TRACON
Mon 02:35:01 PM 33.9500 -83.7167 287° West 224 258 4,000  Level Atlanta TRACON
Mon 02:36:01 PM 33.9833 -83.7833 301° West 237 273 4,000  Level Atlanta TRACON
Mon 02:37:07 PM 34.0167 -83.8667 296° West 234 269 4,000  Level Atlanta TRACON
Mon 02:38:01 PM 34.0333 -83.9333 287° West 234 269 4,000  Level Atlanta TRACON
Mon 02:38:55 PM 34.0667 -84.0000 301° West 235 270 4,000 -53 Level Atlanta TRACON
Mon 02:39:55 PM 34.0667 -84.0667 270° West 215 247 3,900 -500 Descending Atlanta TRACON
Mon 02:40:55 PM 34.0667 -84.1333 270° West 181 208 3,000 -450 Descending Atlanta TRACON
Mon 02:41:55 PM 34.0667 -84.1833 270° West 194 223 3,000 -53 Level Atlanta TRACON
Mon 02:42:49 PM 34.0333 -84.2333 231° Southwest 241 277 2,900  Descending Atlanta TRACON
Mon 02:43:49 PM 33.9833 -84.2500 195° South 165 190 3,000 -250 Climbing Atlanta TRACON
Mon 02:44:49 PM 33.9500 -84.2667 203° Southwest 132 152 2,400 -619 Descending Atlanta TRACON
Mon 02:45:55 PM 33.9167 -84.2833 203° Southwest 106 122 1,700 -636 Descending Atlanta TRACON
Mon 02:47:00 PM 33.8820 -84.2991 270° West  Level Estimated
Mon 02:54:00 PM 33.8756 -84.3020 270° West  Level Estimated
Mon 02:55:00 PM 33.8756 -84.3020 270° West  Level Estimated

Login

Don't have an account? Register now (free) for customized features, flight alerts, and more!